Time;durP1;ratioP1;P1;durP2;ratioP2;P2;SDS_P1;SDS_P2;PMS_P1;PMS_P2;Temp;Humidity;BMP_temperature;BMP_pressure;BME280_temperature;BME280_humidity;BME280_pressure;Samples;Min_cycle;Max_cycle;Signal;HPM_P1;HPM_P2
2022/01/21 00:01:14;;;;;;;;;;;4.20;92.50;;;;;;4979725;28;20388;-86
2022/01/21 00:03:40;;;;;;;;;;;4.20;92.40;;;;;;4970262;28;19913;-86
2022/01/21 00:06:08;;;;;;;;;;;4.10;92.40;;;;;;4973499;28;20547;-86
2022/01/21 00:08:38;;;;;;;;;;;4.00;92.30;;;;;;4978696;28;20239;-86
2022/01/21 00:11:04;;;;;;;;;;;4.00;92.30;;;;;;4971306;28;20472;-86
2022/01/21 00:13:36;;;;;;;;;;;3.90;92.20;;;;;;4995282;28;20011;-86
2022/01/21 00:16:05;;;;;;;;;;;3.90;92.20;;;;;;4990344;28;20015;-86
2022/01/21 00:18:31;;;;;;;;;;;3.90;92.20;;;;;;4997238;28;19920;-86
2022/01/21 00:31:54;;;;;;;;;;;3.60;92.20;;;;;;4997507;28;19920;-86
2022/01/21 00:34:19;;;;;;;;;;;3.60;92.30;;;;;;4964256;28;19918;-86
2022/01/21 00:36:45;;;;;;;;;;;3.60;92.40;;;;;;4992122;28;19921;-86
2022/01/21 00:39:11;;;;;;;;;;;3.60;92.40;;;;;;4981264;28;19922;-86
2022/01/21 00:41:42;;;;;;;;;;;3.50;92.40;;;;;;5015592;28;19984;-86
2022/01/21 00:44:08;;;;;;;;;;;3.50;92.40;;;;;;4988194;28;19976;-86
2022/01/21 00:46:33;;;;;;;;;;;3.50;92.40;;;;;;4975569;28;19921;-86
2022/01/21 00:48:59;;;;;;;;;;;3.50;92.40;;;;;;4980484;28;19995;-86
2022/01/21 00:51:24;;;;;;;;;;;3.50;92.50;;;;;;4979335;28;19909;-86
2022/01/21 00:53:51;;;;;;;;;;;3.40;92.40;;;;;;4981360;28;20762;-86
2022/01/21 00:56:16;;;;;;;;;;;3.40;92.50;;;;;;4988347;28;19975;-86
2022/01/21 00:58:42;;;;;;;;;;;3.40;92.50;;;;;;4971527;28;20028;-86
2022/01/21 01:01:08;;;;;;;;;;;3.30;92.50;;;;;;4977841;28;19917;-86
2022/01/21 01:03:33;;;;;;;;;;;3.30;92.50;;;;;;4991058;28;19969;-86
2022/01/21 01:05:59;;;;;;;;;;;3.30;92.50;;;;;;4972019;28;20453;-86
2022/01/21 01:08:24;;;;;;;;;;;3.30;92.50;;;;;;4976989;28;20121;-86
2022/01/21 01:21:32;;;;;;;;;;;3.20;92.50;;;;;;4982373;28;19965;-86
2022/01/21 01:29:33;;;;;;;;;;;3.20;92.70;;;;;;4995411;28;20015;-86
2022/01/21 01:31:59;;;;;;;;;;;3.20;92.80;;;;;;4977083;28;19999;-86
2022/01/21 01:34:25;;;;;;;;;;;3.20;92.90;;;;;;4998245;28;19921;-86
2022/01/21 01:36:50;;;;;;;;;;;3.30;93.10;;;;;;4978509;28;19986;-86
2022/01/21 01:41:53;;;;;;;;;;;3.40;93.30;;;;;;4984034;28;20365;-87
2022/01/21 01:49:47;;;;;;;;;;;3.60;93.70;;;;;;4988237;28;19921;-86
2022/01/21 01:52:14;;;;;;;;;;;3.60;93.80;;;;;;4980183;28;20381;-86
2022/01/21 01:54:48;;;;;;;;;;;3.70;93.80;;;;;;5007259;28;19917;-86
2022/01/21 01:57:13;;;;;;;;;;;3.80;93.90;;;;;;4965321;28;19918;-87
2022/01/21 01:59:39;;;;;;;;;;;3.90;93.90;;;;;;5009281;28;19968;-87
2022/01/21 02:02:06;;;;;;;;;;;3.90;93.90;;;;;;4968291;28;19979;-85
2022/01/21 02:04:32;;;;;;;;;;;3.90;93.90;;;;;;4979951;28;20350;-85
2022/01/21 02:06:58;;;;;;;;;;;4.00;94.30;;;;;;4972823;28;19937;-85
2022/01/21 02:09:24;;;;;;;;;;;4.00;93.90;;;;;;4999756;28;19917;-85
2022/01/21 02:11:50;;;;;;;;;;;4.00;93.90;;;;;;4984280;28;20041;-85
2022/01/21 02:14:21;;;;;;;;;;;4.00;93.90;;;;;;4991434;28;19917;-85
2022/01/21 02:22:09;;;;;;;;;;;4.00;93.90;;;;;;4997954;28;20286;-85
2022/01/21 02:24:47;;;;;;;;;;;4.00;94.00;;;;;;4970016;28;19918;-85
2022/01/21 02:27:13;;;;;;;;;;;4.00;94.00;;;;;;4991855;28;20441;-85
2022/01/21 02:29:46;;;;;;;;;;;4.10;94.10;;;;;;4987905;28;20028;-85
2022/01/21 02:32:12;;;;;;;;;;;4.10;94.10;;;;;;4982721;28;20010;-85
2022/01/21 02:34:38;;;;;;;;;;;4.20;94.30;;;;;;4985368;28;19918;-85
2022/01/21 02:37:04;;;;;;;;;;;4.20;94.30;;;;;;4986738;28;20410;-85
2022/01/21 02:39:29;;;;;;;;;;;4.20;94.40;;;;;;4996680;28;19922;-85
2022/01/21 02:41:55;;;;;;;;;;;4.30;94.40;;;;;;4979612;28;20117;-84
2022/01/21 02:44:21;;;;;;;;;;;4.30;94.50;;;;;;5008819;28;20438;-84
2022/01/21 02:46:48;;;;;;;;;;;4.30;94.50;;;;;;4980201;28;19932;-85
2022/01/21 02:49:14;;;;;;;;;;;4.40;94.50;;;;;;4975084;28;20349;-85
2022/01/21 02:51:39;;;;;;;;;;;4.40;94.60;;;;;;4984483;28;19913;-85
2022/01/21 02:54:05;;;;;;;;;;;4.50;94.60;;;;;;4983169;28;20298;-84
2022/01/21 02:56:35;;;;;;;;;;;4.50;94.60;;;;;;4985878;28;20307;-85
2022/01/21 02:59:01;;;;;;;;;;;4.60;94.70;;;;;;4989819;28;19921;-84
2022/01/21 03:01:26;;;;;;;;;;;4.60;94.60;;;;;;5020228;28;19933;-84
2022/01/21 03:03:52;;;;;;;;;;;4.60;94.60;;;;;;4985792;28;20114;-84
2022/01/21 03:06:20;;;;;;;;;;;4.60;94.60;;;;;;4990223;28;19917;-85
2022/01/21 03:08:46;;;;;;;;;;;4.70;94.70;;;;;;5006973;28;19921;-85
2022/01/21 03:11:14;;;;;;;;;;;4.70;94.70;;;;;;5003102;28;19910;-85
2022/01/21 03:13:40;;;;;;;;;;;4.70;94.70;;;;;;4989058;28;19949;-85
2022/01/21 03:16:06;;;;;;;;;;;4.70;94.70;;;;;;4967486;28;20012;-84
2022/01/21 03:18:31;;;;;;;;;;;4.70;94.70;;;;;;4998030;28;19913;-85
2022/01/21 03:20:57;;;;;;;;;;;4.70;94.70;;;;;;5007786;28;20470;-85
2022/01/21 03:23:23;;;;;;;;;;;4.80;94.70;;;;;;4977702;28;19913;-85
2022/01/21 03:25:49;;;;;;;;;;;4.80;94.70;;;;;;4986158;28;19913;-85
2022/01/21 03:28:15;;;;;;;;;;;4.80;94.70;;;;;;4972188;28;19945;-85
2022/01/21 03:30:41;;;;;;;;;;;4.70;94.60;;;;;;4976999;28;19920;-85
2022/01/21 03:33:06;;;;;;;;;;;4.80;94.70;;;;;;4976177;28;20482;-85
2022/01/21 03:35:32;;;;;;;;;;;4.70;94.60;;;;;;4970266;28;20009;-85
2022/01/21 03:37:58;;;;;;;;;;;4.70;94.60;;;;;;4977599;28;20087;-85
2022/01/21 03:40:23;;;;;;;;;;;4.70;94.60;;;;;;4974767;28;19917;-85
2022/01/21 03:42:49;;;;;;;;;;;4.70;94.60;;;;;;4993349;28;19917;-85
2022/01/21 03:45:14;;;;;;;;;;;4.70;94.50;;;;;;4967629;28;19943;-85
2022/01/21 03:47:41;;;;;;;;;;;4.60;94.50;;;;;;4999181;28;19941;-85
2022/01/21 03:50:32;;;;;;;;;;;4.60;94.40;;;;;;4976942;28;19921;-85
2022/01/21 03:53:02;;;;;;;;;;;4.60;94.40;;;;;;4994809;28;20376;-85
2022/01/21 03:55:28;;;;;;;;;;;4.60;94.40;;;;;;4974966;28;20325;-85
2022/01/21 03:57:53;;;;;;;;;;;4.60;94.40;;;;;;4997946;28;20209;-85
2022/01/21 04:00:23;;;;;;;;;;;4.50;94.30;;;;;;4979068;28;20004;-85
2022/01/21 04:02:49;;;;;;;;;;;4.50;94.20;;;;;;4987229;28;20115;-85
2022/01/21 04:05:15;;;;;;;;;;;4.40;94.10;;;;;;4990030;28;19913;-85
2022/01/21 04:07:40;;;;;;;;;;;4.40;94.10;;;;;;4972441;28;19913;-85
2022/01/21 04:10:06;;;;;;;;;;;4.30;94.00;;;;;;4983727;28;19928;-85
2022/01/21 04:12:32;;;;;;;;;;;4.30;94.00;;;;;;4980048;28;19914;-85
2022/01/21 04:14:59;;;;;;;;;;;4.20;93.90;;;;;;4980961;28;20038;-85
2022/01/21 04:17:25;;;;;;;;;;;4.20;93.90;;;;;;4979999;28;19913;-85
2022/01/21 04:19:50;;;;;;;;;;;4.10;93.90;;;;;;4980897;28;19920;-85
2022/01/21 04:22:16;;;;;;;;;;;4.10;93.90;;;;;;5008415;28;20383;-85
2022/01/21 04:24:44;;;;;;;;;;;4.00;93.80;;;;;;4977025;28;19922;-85
2022/01/21 04:27:10;;;;;;;;;;;4.00;93.80;;;;;;4974331;28;19913;-85
2022/01/21 04:29:35;;;;;;;;;;;3.90;93.80;;;;;;4977983;28;20449;-85
2022/01/21 04:32:01;;;;;;;;;;;3.90;93.80;;;;;;4980748;28;19960;-85
2022/01/21 04:34:26;;;;;;;;;;;3.90;93.90;;;;;;4968474;28;20001;-85
2022/01/21 04:36:52;;;;;;;;;;;3.90;93.90;;;;;;4994444;28;19944;-85
2022/01/21 04:39:25;;;;;;;;;;;3.80;93.80;;;;;;4965825;28;19913;-85
2022/01/21 04:47:18;;;;;;;;;;;3.70;93.80;;;;;;5008360;28;19941;-85
2022/01/21 04:49:44;;;;;;;;;;;3.70;93.70;;;;;;4977102;28;20111;-85
2022/01/21 04:52:10;;;;;;;;;;;3.70;93.80;;;;;;4979689;28;20041;-85
2022/01/21 04:54:35;;;;;;;;;;;3.60;93.70;;;;;;4965981;28;19950;-85
2022/01/21 04:57:02;;;;;;;;;;;3.60;93.80;;;;;;4994614;28;19913;-85
2022/01/21 04:59:27;;;;;;;;;;;3.60;93.80;;;;;;4970311;28;20167;-85
2022/01/21 05:01:53;;;;;;;;;;;3.60;93.90;;;;;;5006107;28;19921;-85
2022/01/21 05:04:20;;;;;;;;;;;3.60;94.00;;;;;;4990224;28;19926;-85
2022/01/21 05:06:47;;;;;;;;;;;3.60;94.10;;;;;;4980023;28;19940;-85
2022/01/21 05:09:15;;;;;;;;;;;3.70;94.20;;;;;;4975427;28;19913;-85
2022/01/21 05:11:41;;;;;;;;;;;3.70;94.30;;;;;;4964351;28;20414;-85
2022/01/21 05:14:23;;;;;;;;;;;3.80;94.50;;;;;;4984629;28;19914;-85
2022/01/21 05:16:51;;;;;;;;;;;3.90;94.60;;;;;;4976154;28;20153;-85
2022/01/21 05:19:19;;;;;;;;;;;3.90;94.60;;;;;;4990819;28;19918;-85
2022/01/21 05:21:45;;;;;;;;;;;4.00;94.70;;;;;;4976224;28;20510;-85
2022/01/21 05:24:11;;;;;;;;;;;4.00;94.70;;;;;;4990170;28;20370;-84
2022/01/21 05:26:39;;;;;;;;;;;4.10;94.80;;;;;;4983573;28;20400;-85
2022/01/21 05:29:05;;;;;;;;;;;4.20;94.90;;;;;;4990655;28;20392;-85
2022/01/21 05:31:31;;;;;;;;;;;4.20;94.90;;;;;;4966108;28;20362;-85
2022/01/21 05:33:56;;;;;;;;;;;4.30;94.90;;;;;;4976854;28;19928;-85
2022/01/21 05:36:22;;;;;;;;;;;4.40;95.00;;;;;;4983403;28;20019;-84
2022/01/21 05:38:47;;;;;;;;;;;4.40;95.00;;;;;;4971503;28;20087;-85
2022/01/21 05:41:14;;;;;;;;;;;4.40;95.00;;;;;;4966536;28;19924;-85
2022/01/21 05:43:45;;;;;;;;;;;4.50;95.10;;;;;;4985727;28;19971;-85
2022/01/21 05:46:26;;;;;;;;;;;4.50;95.10;;;;;;4974559;28;19914;-85
2022/01/21 05:48:52;;;;;;;;;;;4.60;95.10;;;;;;4969193;28;20066;-85
2022/01/21 05:51:18;;;;;;;;;;;4.60;95.10;;;;;;4977042;28;20848;-85
2022/01/21 05:53:43;;;;;;;;;;;4.70;95.10;;;;;;4981105;28;19996;-85
2022/01/21 05:56:09;;;;;;;;;;;4.70;95.20;;;;;;4972289;28;20408;-85
2022/01/21 05:58:34;;;;;;;;;;;4.70;95.20;;;;;;4994865;28;19913;-85
2022/01/21 06:01:00;;;;;;;;;;;4.70;95.10;;;;;;4989902;28;19917;-85
2022/01/21 06:03:26;;;;;;;;;;;4.70;95.10;;;;;;4956852;28;20317;-85
2022/01/21 06:05:51;;;;;;;;;;;4.70;95.00;;;;;;4994164;28;20004;-85
2022/01/21 06:08:17;;;;;;;;;;;4.70;94.90;;;;;;4962553;28;20314;-85
2022/01/21 06:10:43;;;;;;;;;;;4.70;94.90;;;;;;4994284;28;20219;-85
2022/01/21 06:13:08;;;;;;;;;;;4.60;94.80;;;;;;4986692;28;19917;-85
2022/01/21 06:15:35;;;;;;;;;;;4.60;94.70;;;;;;4977995;28;20015;-85
2022/01/21 06:18:00;;;;;;;;;;;4.50;94.60;;;;;;4970762;28;19920;-85
2022/01/21 06:20:26;;;;;;;;;;;4.50;94.60;;;;;;4986422;28;20122;-85
2022/01/21 06:22:52;;;;;;;;;;;4.40;94.60;;;;;;4965386;28;19921;-85
2022/01/21 06:25:17;;;;;;;;;;;4.40;94.50;;;;;;4993604;28;19949;-85
2022/01/21 06:27:45;;;;;;;;;;;4.30;94.50;;;;;;5002254;28;20150;-85
2022/01/21 06:30:11;;;;;;;;;;;4.30;94.50;;;;;;4980700;28;20330;-85
2022/01/21 06:32:36;;;;;;;;;;;4.20;94.40;;;;;;4993541;28;19943;-85
2022/01/21 06:35:02;;;;;;;;;;;4.10;94.40;;;;;;4984348;28;19913;-85
2022/01/21 06:37:28;;;;;;;;;;;4.10;94.40;;;;;;4988767;28;20107;-85
2022/01/21 06:39:53;;;;;;;;;;;4.10;94.30;;;;;;4967582;28;20682;-85
2022/01/21 06:42:25;;;;;;;;;;;4.00;94.30;;;;;;4993182;28;20010;-85
2022/01/21 06:44:50;;;;;;;;;;;4.00;94.30;;;;;;4968949;28;19914;-85
2022/01/21 06:47:16;;;;;;;;;;;3.90;94.30;;;;;;4994187;28;19928;-85
2022/01/21 06:49:42;;;;;;;;;;;3.90;94.30;;;;;;4966178;28;20198;-85
2022/01/21 06:52:07;;;;;;;;;;;3.90;94.30;;;;;;4993379;28;19917;-85
2022/01/21 06:54:33;;;;;;;;;;;3.80;94.20;;;;;;4980524;28;20156;-85
2022/01/21 06:56:58;;;;;;;;;;;3.80;94.30;;;;;;4999941;28;19914;-85
2022/01/21 06:59:24;;;;;;;;;;;3.80;94.30;;;;;;4971526;28;20574;-85
2022/01/21 07:01:49;;;;;;;;;;;3.80;94.20;;;;;;4981934;28;19925;-85
2022/01/21 07:04:15;;;;;;;;;;;3.70;94.20;;;;;;4973437;28;20150;-85
2022/01/21 07:06:40;;;;;;;;;;;3.70;94.10;;;;;;4981563;28;20111;-85
2022/01/21 07:09:06;;;;;;;;;;;3.70;94.10;;;;;;5001261;28;19917;-85
2022/01/21 07:11:31;;;;;;;;;;;3.60;94.10;;;;;;4980204;28;20165;-85
2022/01/21 07:13:57;;;;;;;;;;;3.60;94.10;;;;;;4997855;28;19991;-85
2022/01/21 07:16:23;;;;;;;;;;;3.60;94.10;;;;;;4978498;28;20286;-85
2022/01/21 07:18:48;;;;;;;;;;;3.60;94.10;;;;;;4998184;28;19913;-85
2022/01/21 07:21:14;;;;;;;;;;;3.50;94.10;;;;;;4983683;28;19917;-85
2022/01/21 07:23:39;;;;;;;;;;;3.60;94.20;;;;;;4973302;28;19917;-85
2022/01/21 07:26:05;;;;;;;;;;;3.60;94.20;;;;;;4970377;28;19914;-85
2022/01/21 07:28:32;;;;;;;;;;;3.50;94.20;;;;;;4979337;28;20228;-85
2022/01/21 07:30:57;;;;;;;;;;;3.50;94.20;;;;;;4986601;28;20021;-85
2022/01/21 07:33:23;;;;;;;;;;;3.50;94.20;;;;;;4979006;28;20272;-85
2022/01/21 07:35:49;;;;;;;;;;;3.50;94.20;;;;;;4972187;28;20024;-85
2022/01/21 07:38:14;;;;;;;;;;;3.50;94.20;;;;;;4997970;28;20385;-85
2022/01/21 07:40:40;;;;;;;;;;;3.50;94.20;;;;;;4990084;28;20104;-85
2022/01/21 07:43:06;;;;;;;;;;;3.50;94.10;;;;;;5000291;28;19913;-85
2022/01/21 07:45:32;;;;;;;;;;;3.50;94.10;;;;;;4980195;28;20120;-85
2022/01/21 07:47:57;;;;;;;;;;;3.40;94.00;;;;;;4984145;28;20012;-85
2022/01/21 07:50:23;;;;;;;;;;;3.40;94.10;;;;;;4986797;28;20013;-85
2022/01/21 07:52:49;;;;;;;;;;;3.40;94.10;;;;;;4999188;28;19913;-85
2022/01/21 07:55:14;;;;;;;;;;;3.40;94.10;;;;;;4970340;28;20132;-85
2022/01/21 07:57:40;;;;;;;;;;;3.40;94.20;;;;;;4963989;28;20052;-85
2022/01/21 08:00:06;;;;;;;;;;;3.40;94.20;;;;;;4975883;28;19913;-85
2022/01/21 08:02:32;;;;;;;;;;;3.50;94.30;;;;;;4990920;28;20264;-85
2022/01/21 08:05:01;;;;;;;;;;;3.50;94.40;;;;;;4981732;28;19924;-85
2022/01/21 08:07:26;;;;;;;;;;;3.50;94.40;;;;;;4991084;28;20306;-85
2022/01/21 08:09:53;;;;;;;;;;;3.50;94.50;;;;;;4981874;28;19920;-85
2022/01/21 08:12:19;;;;;;;;;;;3.60;94.60;;;;;;4981396;28;20102;-85
2022/01/21 08:14:45;;;;;;;;;;;3.60;94.60;;;;;;5001158;28;19921;-85
2022/01/21 08:17:10;;;;;;;;;;;3.60;94.60;;;;;;4981698;28;20189;-85
2022/01/21 08:19:36;;;;;;;;;;;3.70;94.70;;;;;;5016113;28;19918;-85
2022/01/21 08:22:01;;;;;;;;;;;3.70;94.80;;;;;;4970436;28;20416;-85
2022/01/21 08:24:27;;;;;;;;;;;3.80;94.80;;;;;;4982949;28;19914;-85
2022/01/21 08:26:53;;;;;;;;;;;3.80;94.80;;;;;;4993964;28;20390;-86
2022/01/21 08:29:18;;;;;;;;;;;3.90;94.90;;;;;;4990532;28;20086;-85
2022/01/21 08:31:45;;;;;;;;;;;3.90;95.00;;;;;;4993829;28;20240;-85
2022/01/21 08:34:11;;;;;;;;;;;4.00;95.10;;;;;;4971837;28;19983;-85
2022/01/21 08:36:38;;;;;;;;;;;4.10;95.20;;;;;;4979628;28;19925;-85
2022/01/21 08:39:04;;;;;;;;;;;4.20;95.20;;;;;;4984458;28;20201;-85
2022/01/21 08:41:30;;;;;;;;;;;4.30;95.30;;;;;;4982089;28;20031;-85
2022/01/21 08:43:55;;;;;;;;;;;4.30;95.40;;;;;;4979059;28;19975;-85
2022/01/21 08:46:21;;;;;;;;;;;4.40;95.50;;;;;;4982747;28;20516;-85
2022/01/21 08:48:47;;;;;;;;;;;4.50;95.50;;;;;;4973952;28;19928;-85
2022/01/21 08:51:18;;;;;;;;;;;4.60;95.60;;;;;;4996047;28;20213;-85
2022/01/21 08:53:45;;;;;;;;;;;4.70;95.80;;;;;;4973020;28;20004;-85
2022/01/21 08:56:12;;;;;;;;;;;4.80;96.00;;;;;;4973006;28;20102;-85
2022/01/21 08:58:38;;;;;;;;;;;5.10;96.20;;;;;;4979432;28;20285;-85
2022/01/21 09:01:03;;;;;;;;;;;5.20;96.30;;;;;;4993416;28;19921;-85
2022/01/21 09:03:29;;;;;;;;;;;5.40;96.30;;;;;;4978265;28;20282;-85
2022/01/21 09:05:55;;;;;;;;;;;5.60;96.40;;;;;;4972553;28;19924;-86
2022/01/21 09:08:25;;;;;;;;;;;5.70;96.50;;;;;;4994460;28;20114;-85
2022/01/21 09:10:52;;;;;;;;;;;5.80;96.50;;;;;;5001223;28;19913;-85
2022/01/21 09:13:17;;;;;;;;;;;6.00;96.50;;;;;;4975117;28;19921;-85
2022/01/21 09:15:43;;;;;;;;;;;6.10;96.40;;;;;;4995056;28;19920;-85
2022/01/21 09:18:09;;;;;;;;;;;6.20;96.40;;;;;;4985264;28;19917;-85
2022/01/21 09:20:35;;;;;;;;;;;6.30;96.40;;;;;;4984703;28;20004;-85
2022/01/21 09:23:02;;;;;;;;;;;6.40;96.40;;;;;;4990097;28;20370;-85
2022/01/21 09:25:28;;;;;;;;;;;6.50;96.30;;;;;;4965549;28;20374;-85
2022/01/21 09:27:54;;;;;;;;;;;6.60;96.30;;;;;;4991810;28;19925;-85
2022/01/21 09:30:19;;;;;;;;;;;6.70;96.30;;;;;;4982182;28;20118;-85
2022/01/21 09:32:45;;;;;;;;;;;6.80;96.20;;;;;;4974915;28;20386;-85
2022/01/21 09:35:11;;;;;;;;;;;6.80;96.10;;;;;;4979646;28;20685;-85
2022/01/21 09:37:36;;;;;;;;;;;6.90;96.00;;;;;;4980290;28;19932;-85
2022/01/21 09:40:04;;;;;;;;;;;6.90;95.80;;;;;;4962591;28;19913;-85
2022/01/21 09:42:31;;;;;;;;;;;6.90;95.80;;;;;;4973102;28;19922;-86
2022/01/21 09:44:57;;;;;;;;;;;7.00;95.90;;;;;;4997270;28;19951;-85
2022/01/21 09:47:23;;;;;;;;;;;7.20;96.30;;;;;;4991843;28;19944;-85
2022/01/21 09:49:48;;;;;;;;;;;7.40;96.70;;;;;;4967181;28;19913;-85
2022/01/21 09:52:16;;;;;;;;;;;7.80;97.10;;;;;;4961295;28;20294;-85
2022/01/21 09:54:47;;;;;;;;;;;8.30;97.50;;;;;;4995111;28;21312;-85
2022/01/21 09:57:23;;;;;;;;;;;8.80;97.90;;;;;;4985099;28;20069;-85
2022/01/21 09:59:49;;;;;;;;;;;9.30;98.00;;;;;;4987719;28;19917;-85
2022/01/21 10:02:18;;;;;;;;;;;9.90;97.80;;;;;;4985051;28;20398;-85
2022/01/21 10:04:46;;;;;;;;;;;10.40;97.80;;;;;;4992020;28;19913;-84
2022/01/21 10:07:15;;;;;;;;;;;11.00;97.40;;;;;;4985199;28;20599;-84
2022/01/21 10:09:42;;;;;;;;;;;11.40;96.90;;;;;;4998734;28;19917;-84
2022/01/21 10:12:08;;;;;;;;;;;11.90;96.80;;;;;;4976117;28;20545;-84
2022/01/21 10:14:33;;;;;;;;;;;12.30;96.60;;;;;;4991620;28;19918;-84
2022/01/21 10:16:59;;;;;;;;;;;12.70;95.00;;;;;;4965042;28;19913;-84
2022/01/21 10:19:29;;;;;;;;;;;13.00;95.20;;;;;;4987308;28;19922;-83
2022/01/21 10:22:06;;;;;;;;;;;13.30;95.10;;;;;;4971981;28;19925;-84
2022/01/21 10:24:33;;;;;;;;;;;13.50;94.80;;;;;;5007989;28;19929;-84
2022/01/21 10:26:59;;;;;;;;;;;13.70;94.10;;;;;;4981511;28;19913;-84
2022/01/21 10:29:33;;;;;;;;;;;13.80;93.70;;;;;;4972820;28;19917;-84
2022/01/21 10:32:00;;;;;;;;;;;13.80;93.30;;;;;;4992284;28;20194;-85
2022/01/21 10:34:30;;;;;;;;;;;13.80;93.00;;;;;;4981203;28;19992;-84
2022/01/21 10:37:05;;;;;;;;;;;13.80;93.10;;;;;;4989169;28;20399;-84
2022/01/21 10:39:32;;;;;;;;;;;13.70;93.00;;;;;;5004082;28;19924;-84
2022/01/21 10:41:59;;;;;;;;;;;13.70;92.50;;;;;;4978400;28;20163;-84
2022/01/21 10:44:28;;;;;;;;;;;13.60;92.70;;;;;;4977549;28;19918;-84
2022/01/21 10:47:06;;;;;;;;;;;13.70;93.10;;;;;;4965779;28;19913;-85
2022/01/21 10:49:32;;;;;;;;;;;13.70;92.90;;;;;;4991957;28;19922;-85
2022/01/21 10:51:57;;;;;;;;;;;13.80;93.00;;;;;;4994942;28;19983;-84
2022/01/21 10:54:26;;;;;;;;;;;13.70;92.90;;;;;;4989469;28;19918;-84
2022/01/21 10:57:03;;;;;;;;;;;13.60;92.50;;;;;;4994165;28;21061;-84
2022/01/21 10:59:43;;;;;;;;;;;13.50;92.20;;;;;;4988138;28;19919;-84
2022/01/21 11:02:11;;;;;;;;;;;13.30;91.50;;;;;;4967505;28;20008;-84
2022/01/21 11:04:41;;;;;;;;;;;13.10;91.30;;;;;;4983491;28;19922;-84
2022/01/21 11:07:07;;;;;;;;;;;12.90;91.10;;;;;;4984622;28;19918;-84
2022/01/21 11:09:35;;;;;;;;;;;12.70;91.20;;;;;;4994381;28;19920;-84
2022/01/21 11:12:10;;;;;;;;;;;12.60;91.50;;;;;;4988928;28;19918;-84
2022/01/21 11:14:36;;;;;;;;;;;12.50;91.50;;;;;;4968964;28;19921;-84
2022/01/21 11:17:06;;;;;;;;;;;12.40;91.60;;;;;;4996711;28;20473;-84
2022/01/21 11:19:34;;;;;;;;;;;12.40;91.50;;;;;;4969693;28;20001;-84
2022/01/21 11:22:00;;;;;;;;;;;12.30;91.30;;;;;;5000834;28;20357;-84
2022/01/21 11:24:26;;;;;;;;;;;12.10;91.30;;;;;;4997451;28;19920;-84
2022/01/21 11:27:05;;;;;;;;;;;12.00;90.60;;;;;;4982903;28;20325;-84
2022/01/21 11:29:31;;;;;;;;;;;11.80;91.00;;;;;;4973071;28;20325;-84
2022/01/21 11:31:56;;;;;;;;;;;11.70;91.30;;;;;;4992137;28;19918;-84
2022/01/21 11:34:22;;;;;;;;;;;11.60;91.30;;;;;;4984830;28;19913;-84
2022/01/21 11:36:47;;;;;;;;;;;11.50;91.30;;;;;;4980870;28;19922;-84
2022/01/21 11:39:13;;;;;;;;;;;11.40;91.40;;;;;;5000814;28;19918;-84
2022/01/21 11:41:40;;;;;;;;;;;11.30;91.00;;;;;;5004598;28;19924;-84
2022/01/21 11:44:06;;;;;;;;;;;11.20;91.00;;;;;;4983925;28;19921;-84
2022/01/21 11:49:04;;;;;;;;;;;11.00;91.40;;;;;;4982277;28;19929;-84
2022/01/21 11:51:31;;;;;;;;;;;10.90;91.80;;;;;;4982051;28;19913;-84
2022/01/21 11:54:00;;;;;;;;;;;10.80;91.70;;;;;;4994406;28;20186;-84
2022/01/21 11:56:34;;;;;;;;;;;10.80;91.20;;;;;;4990689;28;19914;-83
2022/01/21 11:59:02;;;;;;;;;;;10.80;91.20;;;;;;4977288;28;19914;-84
2022/01/21 12:01:31;;;;;;;;;;;10.70;91.70;;;;;;4991509;28;20235;-84
2022/01/21 12:03:57;;;;;;;;;;;10.70;91.80;;;;;;4968708;28;19924;-83
2022/01/21 12:06:35;;;;;;;;;;;10.70;91.40;;;;;;4978711;28;19913;-84
2022/01/21 12:09:04;;;;;;;;;;;10.70;91.80;;;;;;4979976;28;19963;-84
2022/01/21 12:11:40;;;;;;;;;;;10.70;92.00;;;;;;5001370;28;19914;-84
2022/01/21 12:14:27;;;;;;;;;;;10.60;92.10;;;;;;4959039;28;20123;-84
2022/01/21 12:16:59;;;;;;;;;;;10.60;92.00;;;;;;4976806;28;19918;-84
2022/01/21 12:19:32;;;;;;;;;;;10.50;92.20;;;;;;5009208;28;19939;-84
2022/01/21 12:22:09;;;;;;;;;;;10.50;92.40;;;;;;4974434;28;20375;-84
2022/01/21 12:24:44;;;;;;;;;;;10.50;92.40;;;;;;4984503;28;19914;-84
2022/01/21 12:27:13;;;;;;;;;;;10.40;92.50;;;;;;4996514;28;20162;-83
2022/01/21 12:29:39;;;;;;;;;;;10.40;92.40;;;;;;4991120;28;19913;-84
2022/01/21 12:35:00;;;;;;;;;;;10.30;92.70;;;;;;4972035;28;20020;-84
2022/01/21 12:37:39;;;;;;;;;;;10.30;92.90;;;;;;4977955;28;19926;-84
2022/01/21 12:40:05;;;;;;;;;;;10.20;92.80;;;;;;4984660;28;20099;-84
2022/01/21 12:42:35;;;;;;;;;;;10.20;93.00;;;;;;4991004;28;19929;-84
2022/01/21 12:45:05;;;;;;;;;;;10.20;93.10;;;;;;4975325;28;19976;-84
2022/01/21 12:47:39;;;;;;;;;;;10.20;93.20;;;;;;4983285;28;19985;-83
2022/01/21 12:50:09;;;;;;;;;;;10.20;93.20;;;;;;4974052;28;20148;-84
2022/01/21 12:58:03;;;;;;;;;;;10.20;93.20;;;;;;4986190;28;20069;-83
2022/01/21 13:00:29;;;;;;;;;;;10.20;93.10;;;;;;4971632;28;19913;-84
2022/01/21 13:02:55;;;;;;;;;;;10.20;93.40;;;;;;4990048;28;19914;-83
2022/01/21 13:05:22;;;;;;;;;;;10.20;93.60;;;;;;4985446;28;20118;-83
2022/01/21 13:07:51;;;;;;;;;;;10.20;93.80;;;;;;4983045;28;19914;-84
2022/01/21 13:10:24;;;;;;;;;;;10.30;93.90;;;;;;4995292;28;20098;-83
2022/01/21 13:13:15;;;;;;;;;;;10.30;94.00;;;;;;4995465;28;19968;-83
2022/01/21 13:15:40;;;;;;;;;;;10.30;93.90;;;;;;4991991;28;19918;-83
2022/01/21 13:18:07;;;;;;;;;;;10.30;93.90;;;;;;4984577;28;22186;-83
2022/01/21 13:20:33;;;;;;;;;;;10.30;94.00;;;;;;4974867;28;19913;-85
2022/01/21 13:22:59;;;;;;;;;;;10.40;93.90;;;;;;4964655;28;19971;-83
2022/01/21 13:25:26;;;;;;;;;;;10.40;93.80;;;;;;4981117;28;19913;-84
2022/01/21 13:27:52;;;;;;;;;;;10.40;93.90;;;;;;4997087;28;19917;-84
2022/01/21 13:30:20;;;;;;;;;;;10.40;93.70;;;;;;4967624;28;20042;-83
2022/01/21 13:32:46;;;;;;;;;;;10.40;93.80;;;;;;4978869;28;19919;-83
2022/01/21 13:35:21;;;;;;;;;;;10.40;94.00;;;;;;4986063;28;19921;-83
2022/01/21 13:38:01;;;;;;;;;;;10.40;93.90;;;;;;4990624;28;20390;-84
2022/01/21 13:40:30;;;;;;;;;;;10.40;94.00;;;;;;4995401;28;20568;-83
2022/01/21 13:43:07;;;;;;;;;;;10.30;94.00;;;;;;4993855;28;20196;-84
2022/01/21 13:45:33;;;;;;;;;;;10.30;94.00;;;;;;4971720;28;19917;-83
2022/01/21 13:48:02;;;;;;;;;;;10.30;94.00;;;;;;4988351;28;20501;-83
2022/01/21 13:50:27;;;;;;;;;;;10.30;94.10;;;;;;4970892;28;19918;-83
2022/01/21 13:52:54;;;;;;;;;;;10.30;94.20;;;;;;4994807;28;19937;-83
2022/01/21 13:55:46;;;;;;;;;;;10.30;94.10;;;;;;4967047;28;19917;-83
2022/01/21 13:58:13;;;;;;;;;;;10.30;94.20;;;;;;4973559;28;20571;-84
2022/01/21 14:00:44;;;;;;;;;;;10.30;94.30;;;;;;4977696;28;20417;-84
2022/01/21 14:03:24;;;;;;;;;;;10.30;94.30;;;;;;5006167;28;19945;-84
2022/01/21 14:05:49;;;;;;;;;;;10.30;94.20;;;;;;4998696;28;19921;-84
2022/01/21 14:08:17;;;;;;;;;;;10.30;94.20;;;;;;4982222;28;20525;-84
2022/01/21 14:10:43;;;;;;;;;;;10.30;94.20;;;;;;4959049;28;20066;-84
2022/01/21 14:13:09;;;;;;;;;;;10.30;94.20;;;;;;4973412;28;19921;-84
2022/01/21 14:15:35;;;;;;;;;;;10.30;94.10;;;;;;4964833;28;20876;-84
2022/01/21 14:18:01;;;;;;;;;;;10.30;94.20;;;;;;4975649;28;19913;-84
2022/01/21 14:20:27;;;;;;;;;;;10.20;94.20;;;;;;4989805;28;19924;-84
2022/01/21 14:22:53;;;;;;;;;;;10.20;94.30;;;;;;4979536;28;19920;-84
2022/01/21 14:25:19;;;;;;;;;;;10.20;94.20;;;;;;4981617;28;20501;-84
2022/01/21 14:27:49;;;;;;;;;;;10.20;94.10;;;;;;4976681;28;19979;-84
2022/01/21 14:30:16;;;;;;;;;;;10.20;94.20;;;;;;4986031;28;20028;-84
2022/01/21 14:32:47;;;;;;;;;;;10.20;94.10;;;;;;4982371;28;20543;-83
2022/01/21 14:35:12;;;;;;;;;;;10.20;93.90;;;;;;4964163;28;20046;-83
2022/01/21 14:37:43;;;;;;;;;;;10.10;94.00;;;;;;4988368;28;19929;-84
2022/01/21 14:40:11;;;;;;;;;;;10.10;94.00;;;;;;4985074;28;19940;-84
2022/01/21 14:42:36;;;;;;;;;;;10.10;94.10;;;;;;4981421;28;19918;-84
2022/01/21 14:45:10;;;;;;;;;;;10.10;94.10;;;;;;4967207;28;19917;-84
2022/01/21 14:47:36;;;;;;;;;;;10.10;94.10;;;;;;4994209;28;20425;-84
2022/01/21 14:50:06;;;;;;;;;;;10.00;94.10;;;;;;4983380;28;20063;-84
2022/01/21 14:52:38;;;;;;;;;;;10.00;94.10;;;;;;5014173;28;19920;-85
2022/01/21 14:55:10;;;;;;;;;;;10.00;94.20;;;;;;4986449;28;19932;-84
2022/01/21 14:57:35;;;;;;;;;;;10.00;94.20;;;;;;4981910;28;19917;-84
2022/01/21 15:00:03;;;;;;;;;;;9.90;94.20;;;;;;4999297;28;19971;-84
2022/01/21 15:02:31;;;;;;;;;;;9.90;94.30;;;;;;4982289;28;20040;-84
2022/01/21 15:04:57;;;;;;;;;;;9.90;94.30;;;;;;4988899;28;19913;-84
2022/01/21 15:07:25;;;;;;;;;;;9.90;94.40;;;;;;4985808;28;20365;-84
2022/01/21 15:09:53;;;;;;;;;;;9.90;94.40;;;;;;4995478;28;19914;-84
2022/01/21 15:15:10;;;;;;;;;;;9.90;94.40;;;;;;4992339;28;20259;-83
2022/01/21 15:17:35;;;;;;;;;;;9.90;94.40;;;;;;4987118;28;20009;-84
2022/01/21 15:20:01;;;;;;;;;;;9.90;94.40;;;;;;4994412;28;19918;-84
2022/01/21 15:22:27;;;;;;;;;;;9.90;94.30;;;;;;4969957;28;19968;-83
2022/01/21 15:24:59;;;;;;;;;;;9.90;94.30;;;;;;4974337;28;19924;-83
2022/01/21 15:27:25;;;;;;;;;;;9.90;94.30;;;;;;4980432;28;19942;-84